Time;durP1;ratioP1;P1;durP2;ratioP2;P2;SDS_P1;SDS_P2;PMS_P1;PMS_P2;Temp;Humidity;BMP_temperature;BMP_pressure;BME280_temperature;BME280_humidity;BME280_pressure;Samples;Min_cycle;Max_cycle;Signal;HPM_P1;HPM_P2
2023/08/22 00:00:29;;;;;;;4.90;3.03;;;;;;;;;;10196859;29;20405;-86
2023/08/22 00:05:34;;;;;;;3.13;2.17;;;;;;;;;;10217157;29;20075;-86
2023/08/22 00:10:38;;;;;;;4.55;2.45;;;;;;;;;;10200399;29;20047;-85
2023/08/22 00:15:42;;;;;;;4.15;2.33;;;;;;;;;;10223503;29;20051;-86
2023/08/22 00:20:47;;;;;;;4.68;2.20;;;;;;;;;;10219993;29;20039;-86
2023/08/22 00:26:00;;;;;;;2.80;2.13;;;;;;;;;;10186548;29;20055;-86
2023/08/22 00:31:03;;;;;;;3.08;2.42;;;;;;;;;;10201188;28;20046;-85
2023/08/22 00:36:09;;;;;;;2.40;2.20;;;;;;;;;;10226705;29;20532;-88
2023/08/22 00:41:16;;;;;;;4.85;2.75;;;;;;;;;;10199995;29;20051;-88
2023/08/22 00:46:26;;;;;;;3.92;2.50;;;;;;;;;;10205072;29;20087;-88
2023/08/22 00:51:38;;;;;;;3.80;2.22;;;;;;;;;;10212160;29;20083;-87
2023/08/22 00:56:43;;;;;;;2.90;2.42;;;;;;;;;;10212193;29;20039;-87
2023/08/22 01:01:46;;;;;;;2.97;2.15;;;;;;;;;;10214360;23;20525;-83
2023/08/22 01:06:57;;;;;;;2.45;2.25;;;;;;;;;;10259966;28;20476;-82
2023/08/22 01:12:06;;;;;;;3.00;2.33;;;;;;;;;;10286955;28;20558;-82
2023/08/22 01:17:12;;;;;;;4.38;2.22;;;;;;;;;;10278440;28;20081;-83
2023/08/22 01:22:16;;;;;;;4.13;2.53;;;;;;;;;;10284352;28;20061;-83
2023/08/22 01:27:24;;;;;;;4.32;2.38;;;;;;;;;;10285337;28;20640;-84
2023/08/22 01:32:30;;;;;;;3.03;2.47;;;;;;;;;;10277204;28;20047;-83
2023/08/22 01:37:36;;;;;;;3.25;2.30;;;;;;;;;;10275934;28;20504;-83
2023/08/22 01:42:41;;;;;;;3.45;2.28;;;;;;;;;;10279836;28;20035;-83
2023/08/22 01:47:44;;;;;;;2.53;2.33;;;;;;;;;;10277936;28;20417;-82
2023/08/22 01:52:49;;;;;;;2.35;2.15;;;;;;;;;;10273577;28;20074;-83
2023/08/22 01:57:52;;;;;;;3.50;2.50;;;;;;;;;;10278963;28;20070;-83
2023/08/22 02:02:55;;;;;;;2.45;2.08;;;;;;;;;;10276746;28;20116;-83
2023/08/22 02:08:01;;;;;;;2.70;2.15;;;;;;;;;;10295857;28;20046;-83
2023/08/22 02:13:05;;;;;;;;;;;;;;;;;;10307361;28;20094;-83
2023/08/22 02:18:08;;;;;;;3.33;1.90;;;;;;;;;;10290284;28;19960;-83
2023/08/22 02:23:13;;;;;;;3.78;2.00;;;;;;;;;;10295228;28;20042;-83
2023/08/22 02:28:16;;;;;;;3.55;2.70;;;;;;;;;;10302188;28;20073;-83
2023/08/22 02:33:20;;;;;;;2.42;2.22;;;;;;;;;;10295830;28;20483;-83
2023/08/22 02:38:24;;;;;;;2.47;2.20;;;;;;;;;;10299779;28;20061;-83
2023/08/22 02:43:29;;;;;;;6.97;2.28;;;;;;;;;;10298079;28;20556;-82
2023/08/22 02:48:33;;;;;;;3.50;2.22;;;;;;;;;;10290894;28;20047;-82
2023/08/22 02:53:37;;;;;;;3.15;2.22;;;;;;;;;;10303474;28;20055;-82
2023/08/22 02:58:41;;;;;;;3.65;2.20;;;;;;;;;;10285207;28;20066;-82
2023/08/22 03:03:49;;;;;;;2.50;2.30;;;;;;;;;;10285605;28;20077;-83
2023/08/22 03:08:56;;;;;;;2.20;2.00;;;;;;;;;;10300851;28;20066;-82
2023/08/22 03:13:59;;;;;;;2.28;1.95;;;;;;;;;;10307797;28;20125;-82
2023/08/22 03:19:04;;;;;;;6.68;2.17;;;;;;;;;;10292552;28;20062;-83
2023/08/22 03:24:09;;;;;;;2.63;2.15;;;;;;;;;;10282070;28;20054;-83
2023/08/22 03:29:12;;;;;;;2.40;2.17;;;;;;;;;;10289179;28;20812;-83
2023/08/22 03:34:17;;;;;;;3.47;2.10;;;;;;;;;;10300891;28;20069;-83
2023/08/22 03:39:22;;;;;;;2.22;2.03;;;;;;;;;;10300356;28;20411;-83
2023/08/22 03:44:25;;;;;;;2.75;2.28;;;;;;;;;;10299979;28;20846;-83
2023/08/22 03:49:29;;;;;;;2.63;2.30;;;;;;;;;;10293305;28;20042;-82
2023/08/22 03:54:34;;;;;;;5.65;2.10;;;;;;;;;;10299730;28;20058;-83
2023/08/22 03:59:39;;;;;;;3.63;2.40;;;;;;;;;;10286992;28;20130;-82
2023/08/22 04:04:42;;;;;;;2.13;1.77;;;;;;;;;;10311770;28;20570;-84
2023/08/22 04:09:47;;;;;;;4.45;2.10;;;;;;;;;;10285299;28;20046;-85
2023/08/22 04:14:50;;;;;;;2.55;1.88;;;;;;;;;;10299471;28;20124;-84
2023/08/22 04:19:53;;;;;;;4.07;2.42;;;;;;;;;;10288939;28;20059;-84
2023/08/22 04:24:58;;;;;;;2.72;2.28;;;;;;;;;;10300234;28;20050;-85
2023/08/22 04:30:02;;;;;;;3.00;2.13;;;;;;;;;;10301935;28;20465;-85
2023/08/22 04:35:07;;;;;;;2.60;1.92;;;;;;;;;;10319225;28;20042;-86
2023/08/22 04:40:15;;;;;;;3.15;2.03;;;;;;;;;;10294158;28;20069;-86
2023/08/22 04:45:52;;;;;;;2.05;1.80;;;;;;;;;;10297405;28;20042;-84
2023/08/22 04:50:57;;;;;;;4.05;2.00;;;;;;;;;;10311959;28;20042;-83
2023/08/22 04:56:06;;;;;;;1.90;1.75;;;;;;;;;;10323739;28;20129;-83
2023/08/22 05:01:10;;;;;;;2.27;2.00;;;;;;;;;;10324102;28;20107;-83
2023/08/22 05:06:17;;;;;;;3.85;1.77;;;;;;;;;;10308663;28;20308;-82
2023/08/22 05:11:21;;;;;;;3.58;2.10;;;;;;;;;;10300172;28;20052;-83
2023/08/22 05:16:25;;;;;;;2.60;2.00;;;;;;;;;;10303538;28;20058;-81
2023/08/22 05:21:29;;;;;;;2.90;1.80;;;;;;;;;;10301008;28;20045;-82
2023/08/22 05:26:37;;;;;;;2.92;2.05;;;;;;;;;;10301625;28;20084;-82
2023/08/22 05:31:41;;;;;;;2.72;1.95;;;;;;;;;;10307815;28;20072;-82
2023/08/22 05:36:44;;;;;;;4.85;1.83;;;;;;;;;;10305680;28;20057;-82
2023/08/22 05:41:50;;;;;;;2.20;1.60;;;;;;;;;;10306485;28;20045;-82
2023/08/22 05:46:55;;;;;;;1.90;1.50;;;;;;;;;;10303829;28;20049;-82
2023/08/22 05:52:03;;;;;;;2.78;1.90;;;;;;;;;;10304972;28;20044;-82
2023/08/22 05:57:08;;;;;;;1.73;1.43;;;;;;;;;;10307692;28;20038;-82
2023/08/22 06:02:11;;;;;;;3.83;1.95;;;;;;;;;;10297021;28;20038;-83
2023/08/22 06:07:14;;;;;;;4.40;2.17;;;;;;;;;;10292097;28;20043;-82
2023/08/22 06:12:19;;;;;;;2.17;1.92;;;;;;;;;;10292201;28;20596;-82
2023/08/22 06:17:23;;;;;;;1.93;1.73;;;;;;;;;;10299068;28;20050;-82
2023/08/22 06:22:26;;;;;;;2.38;1.48;;;;;;;;;;10305430;28;20105;-83
2023/08/22 06:27:31;;;;;;;2.33;1.77;;;;;;;;;;10282695;28;20412;-82
2023/08/22 06:32:35;;;;;;;1.60;1.50;;;;;;;;;;10305769;28;20034;-82
2023/08/22 06:37:39;;;;;;;2.25;1.80;;;;;;;;;;10308161;28;20046;-83
2023/08/22 06:42:43;;;;;;;2.33;1.77;;;;;;;;;;10314144;28;20050;-83
2023/08/22 06:47:47;;;;;;;3.85;2.30;;;;;;;;;;10315082;28;20046;-82
2023/08/22 06:52:50;;;;;;;3.33;2.30;;;;;;;;;;10315146;28;20045;-81
2023/08/22 06:57:56;;;;;;;3.42;2.13;;;;;;;;;;10314687;28;20061;-82
2023/08/22 07:03:00;;;;;;;2.58;1.77;;;;;;;;;;10323756;28;20470;-82
2023/08/22 07:08:03;;;;;;;3.95;2.15;;;;;;;;;;10314986;28;20105;-83
2023/08/22 07:13:08;;;;;;;4.63;2.22;;;;;;;;;;10323526;28;20046;-83
2023/08/22 07:18:12;;;;;;;2.78;2.28;;;;;;;;;;10325714;28;20046;-83
2023/08/22 07:23:15;;;;;;;2.97;2.10;;;;;;;;;;10306748;28;20074;-84
2023/08/22 07:28:20;;;;;;;3.40;1.98;;;;;;;;;;10307091;28;20102;-83
2023/08/22 07:33:23;;;;;;;2.30;1.73;;;;;;;;;;10324197;28;20514;-83
2023/08/22 07:38:26;;;;;;;3.72;2.00;;;;;;;;;;10332120;28;20050;-83
2023/08/22 07:43:31;;;;;;;3.67;2.13;;;;;;;;;;10309661;28;20129;-83
2023/08/22 07:48:34;;;;;;;4.93;2.90;;;;;;;;;;10323987;28;20066;-83
2023/08/22 07:53:38;;;;;;;3.42;2.20;;;;;;;;;;10319183;28;20046;-84
2023/08/22 07:58:44;;;;;;;5.35;3.10;;;;;;;;;;10325938;28;20046;-85
2023/08/22 08:03:47;;;;;;;;;;;;;;;;;;10307282;28;20090;-82
2023/08/22 08:08:50;;;;;;;2.97;2.40;;;;;;;;;;10300277;28;19976;-83
2023/08/22 08:13:55;;;;;;;2.97;2.03;;;;;;;;;;10300625;28;20038;-83
2023/08/22 08:18:58;;;;;;;5.72;2.40;;;;;;;;;;10298375;28;20133;-83
2023/08/22 08:24:02;;;;;;;2.35;1.27;;;;;;;;;;10307584;28;20106;-82
2023/08/22 08:29:07;;;;;;;2.13;1.60;;;;;;;;;;10308520;28;20104;-82
2023/08/22 08:34:10;;;;;;;4.13;1.88;;;;;;;;;;10301043;28;20074;-82
2023/08/22 08:39:14;;;;;;;3.03;1.67;;;;;;;;;;10300044;28;20105;-83
2023/08/22 08:44:20;;;;;;;3.58;2.00;;;;;;;;;;10323434;28;20046;-83
2023/08/22 08:49:24;;;;;;;2.17;1.67;;;;;;;;;;10315327;28;20054;-83
2023/08/22 08:54:29;;;;;;;3.53;2.30;;;;;;;;;;10308099;28;20052;-83
2023/08/22 08:59:36;;;;;;;2.17;1.63;;;;;;;;;;10314620;28;20051;-82
2023/08/22 09:04:39;;;;;;;2.65;1.67;;;;;;;;;;10295485;28;20077;-83
2023/08/22 09:09:43;;;;;;;2.08;1.30;;;;;;;;;;10296533;28;20046;-83
2023/08/22 09:14:49;;;;;;;1.98;1.27;;;;;;;;;;10295692;28;20050;-82
2023/08/22 09:19:52;;;;;;;2.35;1.00;;;;;;;;;;10314116;28;20045;-82
2023/08/22 09:24:56;;;;;;;3.17;1.90;;;;;;;;;;10298660;28;20057;-83
2023/08/22 09:30:05;;;;;;;6.55;1.77;;;;;;;;;;10291635;28;20046;-83
2023/08/22 09:35:09;;;;;;;3.95;2.05;;;;;;;;;;10300942;28;20046;-83
2023/08/22 09:40:17;;;;;;;2.22;1.45;;;;;;;;;;10309020;28;20046;-83
2023/08/22 09:45:22;;;;;;;2.47;1.50;;;;;;;;;;10293055;28;20043;-83
2023/08/22 09:50:32;;;;;;;2.03;1.30;;;;;;;;;;10291984;28;20073;-83
2023/08/22 09:55:36;;;;;;;3.55;1.98;;;;;;;;;;10293330;28;20058;-83
2023/08/22 10:00:44;;;;;;;2.15;1.20;;;;;;;;;;10310726;28;20464;-83
2023/08/22 10:05:52;;;;;;;1.70;1.45;;;;;;;;;;10303683;28;20034;-83
2023/08/22 10:10:56;;;;;;;2.05;1.33;;;;;;;;;;10291705;28;20050;-82
2023/08/22 10:16:01;;;;;;;1.77;1.30;;;;;;;;;;10304789;28;20121;-83
2023/08/22 10:21:11;;;;;;;;;;;;;;;;;;10308919;28;20049;-82
2023/08/22 10:26:15;;;;;;;1.27;1.17;;;;;;;;;;10308979;28;19964;-83
2023/08/22 10:31:22;;;;;;;3.37;1.27;;;;;;;;;;10298358;28;20050;-83
2023/08/22 10:36:26;;;;;;;1.73;1.10;;;;;;;;;;10315869;28;20143;-83
2023/08/22 10:41:44;;;;;;;1.73;1.10;;;;;;;;;;10315642;28;20074;-83
2023/08/22 10:47:03;;;;;;;1.48;1.05;;;;;;;;;;10311528;28;20081;-83
2023/08/22 10:52:08;;;;;;;2.10;1.25;;;;;;;;;;10303594;28;20092;-83
2023/08/22 10:57:21;;;;;;;;;;;;;;;;;;10301977;28;20508;-83
2023/08/22 11:02:30;;;;;;;1.90;1.17;;;;;;;;;;10289353;28;19997;-83
2023/08/22 11:07:34;;;;;;;2.50;1.88;;;;;;;;;;10319129;28;20468;-83
2023/08/22 11:12:38;;;;;;;1.60;1.20;;;;;;;;;;10318123;28;20717;-83
2023/08/22 11:17:43;;;;;;;1.40;1.23;;;;;;;;;;10299687;28;20077;-83
2023/08/22 11:22:47;;;;;;;1.17;0.95;;;;;;;;;;10310365;28;20046;-83
2023/08/22 11:27:50;;;;;;;3.22;1.20;;;;;;;;;;10320214;28;20042;-83
2023/08/22 11:32:55;;;;;;;1.52;0.95;;;;;;;;;;10303603;28;20058;-83
2023/08/22 11:38:01;;;;;;;11.05;2.42;;;;;;;;;;10304681;28;20046;-83
2023/08/22 11:43:05;;;;;;;4.25;1.85;;;;;;;;;;10297220;28;20519;-83
2023/08/22 11:48:11;;;;;;;2.60;1.63;;;;;;;;;;10301916;28;20050;-83
2023/08/22 11:53:15;;;;;;;1.52;1.10;;;;;;;;;;10296313;28;20042;-83
2023/08/22 11:58:19;;;;;;;1.52;1.38;;;;;;;;;;10324576;28;20054;-84
2023/08/22 12:03:23;;;;;;;3.05;1.40;;;;;;;;;;10316103;28;20748;-82
2023/08/22 12:08:27;;;;;;;;;;;;;;;;;;10309461;28;20078;-84
2023/08/22 12:13:30;;;;;;;3.72;1.88;;;;;;;;;;10298522;28;19956;-83
2023/08/22 12:18:35;;;;;;;4.13;1.40;;;;;;;;;;10299401;28;20141;-84
2023/08/22 12:23:38;;;;;;;;;;;;;;;;;;10320505;28;20652;-83
2023/08/22 12:28:41;;;;;;;2.15;1.30;;;;;;;;;;10309852;28;20029;-83
2023/08/22 12:33:46;;;;;;;2.58;1.40;;;;;;;;;;10316853;28;20073;-83
2023/08/22 12:38:49;;;;;;;1.45;0.90;;;;;;;;;;10309137;28;20069;-83
2023/08/22 12:43:53;;;;;;;3.45;1.98;;;;;;;;;;10305323;28;20167;-83
2023/08/22 12:48:57;;;;;;;1.45;1.20;;;;;;;;;;10317854;28;20069;-83
2023/08/22 12:54:02;;;;;;;2.60;1.80;;;;;;;;;;10288256;28;20093;-83
2023/08/22 12:59:06;;;;;;;2.97;1.30;;;;;;;;;;10303079;28;20046;-83
